Latest Weather Observations for Nowra

IDN60801

Issued at 9:52 pm EST Monday 26 September 2022 (issued every 10 minutes, with the page automatically refreshed every 10 minutes)

About weather observations | Map of weather stations | Latest weather observations for NSW | Other Formats
Station Details ID: 068072 Name: NOWRA RAN AIR STATION AWS Lat: -34.95 Lon: 150.54 Height: 109.0 m
Data from the previous 72 hours. | See also: Recent months at Nowra
Date/Time
EST
Temp
°C
App
Temp
°C
Dew
Point
°C
Rel
Hum
%
Delta-T
°C
Wind Press
QNH
hPa
Press
MSL
hPa
Rain since
9am
mm
Dir  Spd
km/h
Gust
km/h
Spd
kts
Gust
kts
26/09:30pm 13.2 14.1 13.0 99 0.1 CALM 0 0 0 0 1014.5 1014.4 0.0
26/09:00pm 13.6 14.3 13.4 99 0.1 WSW 2 7 1 4 1014.9 1014.8 0.0
26/08:30pm 13.6 14.6 13.1 97 0.3 CALM 0 2 0 1 1015.1 1015.0 0.0
26/08:00pm 14.2 14.0 13.1 93 0.6 WSW 6 7 3 4 1015.1 1015.0 0.0
26/07:30pm 14.2 13.9 12.8 91 0.8 SSW 6 7 3 4 1014.9 1014.8 0.0
26/07:00pm 14.4 14.2 13.0 91 0.8 SSW 6 7 3 4 1014.6 1014.5 0.0
26/06:30pm 14.8 14.4 12.3 85 1.4 SSE 6 9 3 5 1014.6 1014.5 0.0
26/06:00pm 15.3 14.6 12.1 81 1.7 SSE 7 9 4 5 1014.3 1014.2 0.0
26/05:30pm 15.9 15.1 11.7 76 2.3 ESE 7 11 4 6 1014.0 1013.9 0.0
26/05:00pm 16.3 14.0 11.7 74 2.5 ESE 15 19 8 10 1013.7 1013.6 0.0
26/04:30pm 16.8 15.1 11.3 70 3.0 ESE 11 15 6 8 1013.9 1013.8 0.0
26/04:00pm 17.3 14.9 10.0 62 3.9 E 13 20 7 11 1013.7 1013.6 0.0
26/03:30pm 17.9 14.8 10.3 61 4.1 ENE 17 24 9 13 1013.8 1013.7 0.0
26/03:00pm 17.5 13.4 8.6 56 4.6 NE 20 26 11 14 1013.8 1013.7 0.0
26/02:30pm 18.2 14.3 9.5 57 4.6 NE 20 24 11 13 1014.1 1014.0 0.0
26/02:00pm 18.1 14.2 9.5 57 4.5 NE 20 26 11 14 1014.4 1014.3 0.0
26/01:30pm 18.9 15.5 9.1 53 5.2 NE 17 28 9 15 1014.8 1014.7 0.0
26/01:00pm 19.5 17.4 8.2 48 5.9 N 9 19 5 10 1015.2 1015.1 0.0
26/12:30pm 19.9 18.3 8.6 48 5.9 N 7 17 4 9 1015.7 1015.6 0.0
26/12:00pm 19.0 16.3 7.4 47 5.9 NNE 11 17 6 9 1016.2 1016.1 0.0
26/11:30am 18.8 15.8 7.9 49 5.6 WNW 13 19 7 10 1016.6 1016.5 0.0
26/11:00am 18.4 15.1 6.6 46 5.9 NW 13 19 7 10 1016.8 1016.7 0.0
26/10:30am 17.6 14.6 6.2 47 5.6 WNW 11 17 6 9 1017.1 1017.0 0.0
26/10:00am 16.4 13.2 6.8 53 4.7 W 13 19 7 10 1017.5 1017.4 0.0
26/09:30am 16.0 13.5 8.2 60 4.0 WNW 11 15 6 8 1017.8 1017.7 0.0
26/09:00am 15.3 13.6 9.7 69 2.9 NW 9 13 5 7 1017.7 1017.6 0.2
26/08:30am 14.4 12.0 8.8 69 2.9 NW 11 13 6 7 1017.4 1017.3 0.2
26/08:00am 12.8 10.0 8.7 76 2.1 NW 13 15 7 8 1017.5 1017.4 0.2
26/07:30am 12.4 9.0 9.2 81 1.6 WNW 17 20 9 11 1017.5 1017.4 0.2
26/07:00am 9.9 6.8 8.8 93 0.5 WNW 15 17 8 9 1017.1 1017.0 0.2
26/06:30am 9.1 6.4 9.0 99 0.0 W 13 17 7 9 1017.0 1016.9 0.2
26/06:00am 8.7 5.5 8.6 99 0.0 W 15 19 8 10 1017.1 1017.0 0.0
26/05:30am 8.5 4.9 8.4 99 0.0 W 17 19 9 10 1016.8 1016.7 0.0
26/05:00am 8.8 5.6 8.5 98 0.1 WNW 15 17 8 9 1016.8 1016.7 0.0
26/04:30am 8.7 6.3 8.6 99 0.0 WSW 11 17 6 9 1016.5 1016.4 0.0
26/04:00am 9.4 5.5 8.6 95 0.4 WNW 19 24 10 13 1016.4 1016.3 0.0
26/03:30am 9.3 6.7 9.2 99 0.0 WNW 13 15 7 8 1016.2 1016.1 0.0
26/03:00am 9.4 6.8 9.3 99 0.0 WNW 13 17 7 9 1016.3 1016.2 0.0
26/02:30am 9.7 6.8 9.6 99 0.1 WNW 15 19 8 10 1016.5 1016.4 0.0
26/02:00am 9.6 7.1 9.6 100 0.0 WNW 13 17 7 9 1016.8 1016.7 0.0
26/01:30am 9.5 7.3 9.5 100 0.0 WNW 11 13 6 7 1017.0 1016.9 0.0
26/01:00am 9.6 7.8 9.6 100 0.0 WNW 9 11 5 6 1017.3 1017.2 0.0
26/12:30am 10.0 7.6 10.0 100 0.0 W 13 13 7 7 1017.5 1017.4 0.0
26/12:00am 10.5 9.0 10.5 100 0.0 WNW 9 13 5 7 1017.6 1017.5 0.0
 
Date/Time
EST
Temp
°C
App
Temp
°C
Dew
Point
°C
Rel
Hum
%
Delta-T
°C
Wind Press
QNH
hPa
Press
MSL
hPa
Rain since
9am
mm
Dir  Spd
km/h
Gust
km/h
Spd
kts
Gust
kts
25/11:30pm 10.3 9.3 10.3 100 0.0 W 6 7 3 4 1017.5 1017.4 0.0
25/11:00pm 10.3 9.3 10.3 100 0.0 W 6 9 3 5 1017.7 1017.6 0.0
25/10:30pm 9.9 9.2 9.9 100 0.0 NNW 4 7 2 4 1017.7 1017.6 0.0
25/10:00pm 10.9 9.5 10.9 100 0.0 W 9 11 5 6 1017.9 1017.8 0.0
25/09:30pm 10.1 9.8 10.1 100 0.0 W 2 6 1 3 1017.5 1017.4 0.0
25/09:00pm 10.2 9.0 10.2 100 0.0 W 7 7 4 4 1017.3 1017.2 0.0
25/08:30pm 9.8 8.1 9.8 100 0.0 WSW 9 11 5 6 1017.4 1017.3 0.0
25/08:00pm 10.2 9.0 10.2 100 0.0 WSW 7 9 4 5 1016.8 1016.7 0.0
25/07:30pm 10.7 9.6 10.7 100 0.0 SW 7 7 4 4 1016.3 1016.2 0.0
25/07:00pm 11.3 11.6 11.0 98 0.2 CALM 0 0 0 0 1015.8 1015.7 0.0
25/06:30pm 14.1 14.0 12.1 88 1.1 E 4 7 2 4 1015.4 1015.3 0.0
25/06:00pm 14.4 13.2 11.6 83 1.5 E 9 11 5 6 1015.1 1015.0 0.0
25/05:30pm 15.4 13.4 11.4 77 2.2 ENE 13 17 7 9 1014.7 1014.6 0.0
25/05:00pm 16.5 13.9 10.6 68 3.2 ENE 15 20 8 11 1014.2 1014.1 0.0
25/04:30pm 17.3 14.3 10.7 65 3.6 E 17 22 9 12 1014.1 1014.0 0.0
25/04:00pm 17.8 14.7 10.4 62 4.0 ENE 17 22 9 12 1013.7 1013.6 0.0
25/03:30pm 18.2 14.7 10.8 62 4.0 ENE 20 28 11 15 1013.5 1013.4 0.0
25/03:00pm 18.7 15.0 10.3 58 4.5 ENE 20 30 11 16 1013.4 1013.3 0.0
25/02:30pm 19.5 16.2 9.7 53 5.2 NE 17 30 9 16 1013.2 1013.1 0.0
25/02:00pm 21.0 18.4 3.2 31 8.5 ENE 6 11 3 6 1013.2 1013.1 0.0
25/01:30pm 20.4 17.1 4.8 36 7.6 ESE 11 13 6 7 1013.3 1013.2 0.0
25/01:00pm 20.4 17.5 4.4 35 7.8 NW 9 13 5 7 1013.7 1013.6 0.0
25/12:30pm 19.6 17.0 6.0 41 6.8 SSW 9 15 5 8 1014.2 1014.1 0.0
25/12:00pm 19.2 17.3 6.7 44 6.3 W 6 15 3 8 1014.6 1014.5 0.0
25/11:30am 18.5 15.5 7.6 49 5.6 NW 13 17 7 9 1014.8 1014.7 0.0
25/11:00am 18.2 16.0 7.9 51 5.3 WNW 9 17 5 9 1015.3 1015.2 0.0
25/10:30am 17.8 14.8 7.8 52 5.1 W 13 20 7 11 1015.7 1015.6 0.0
25/10:00am 17.0 14.5 8.4 57 4.4 WNW 11 15 6 8 1015.8 1015.7 0.0
25/09:30am 16.5 13.9 9.2 62 3.8 W 13 17 7 9 1015.9 1015.8 0.0
25/09:00am 15.3 11.7 8.3 63 3.5 WNW 17 20 9 11 1015.8 1015.7 12.0
25/08:30am 14.4 10.5 8.6 68 2.9 WNW 19 24 10 13 1015.8 1015.7 12.0
25/08:00am 13.1 9.6 8.6 74 2.3 WNW 17 20 9 11 1015.7 1015.6 12.0
25/07:30am 12.1 8.3 9.1 82 1.5 WNW 19 24 10 13 1015.6 1015.5 12.0
25/07:00am 11.1 8.0 9.0 87 1.0 WNW 15 20 8 11 1015.4 1015.3 12.0
25/06:30am 9.9 6.9 9.1 95 0.4 WNW 15 17 8 9 1015.1 1015.0 12.0
25/06:00am 9.2 7.2 8.7 97 0.2 NNW 9 13 5 7 1014.6 1014.5 12.0
25/05:30am 9.3 6.3 9.2 99 0.0 NW 15 17 8 9 1014.4 1014.3 12.0
25/05:00am 9.6 6.7 9.5 99 0.0 NW 15 19 8 10 1014.2 1014.1 12.0
25/04:30am 9.7 6.4 9.7 100 0.0 NW 17 20 9 11 1013.8 1013.7 12.0
25/04:00am 9.3 7.1 9.3 100 0.0 NW 11 11 6 6 1013.8 1013.7 12.0
25/03:30am 10.1 8.5 10.1 100 0.0 WNW 9 11 5 6 1013.8 1013.7 12.0
25/03:00am 10.8 7.5 10.8 100 0.0 WNW 19 24 10 13 1013.8 1013.7 12.0
25/02:30am 10.8 8.6 10.8 100 0.0 WNW 13 15 7 8 1013.7 1013.6 12.0
25/02:00am 10.9 9.1 10.9 100 0.0 WNW 11 17 6 9 1013.9 1013.8 11.8
25/01:30am 11.0 9.2 11.0 100 0.0 NW 11 13 6 7 1014.0 1013.9 11.8
25/01:00am 10.5 9.4 10.5 100 0.0 N 7 9 4 5 1014.0 1013.9 11.8
25/12:30am 11.5 9.9 11.5 100 0.0 W 11 13 6 7 1014.1 1014.0 11.8
25/12:00am 11.0 9.2 11.0 100 0.0 WNW 11 11 6 6 1014.3 1014.2 11.8
 
Date/Time
EST
Temp
°C
App
Temp
°C
Dew
Point
°C
Rel
Hum
%
Delta-T
°C
Wind Press
QNH
hPa
Press
MSL
hPa
Rain since
9am
mm
Dir  Spd
km/h
Gust
km/h
Spd
kts
Gust
kts
24/11:30pm 10.9 9.5 10.9 100 0.0 WNW 9 11 5 6 1014.2 1014.1 11.8
24/11:00pm 11.2 9.9 11.2 100 0.0 SW 9 11 5 6 1014.2 1014.1 11.8
24/10:30pm 11.7 9.8 11.7 100 0.0 WNW 13 17 7 9 1014.0 1013.9 11.8
24/10:00pm 12.0 9.8 12.0 100 0.0 NW 15 19 8 10 1013.8 1013.7 11.8
24/09:30pm 12.2 10.4 12.2 100 0.0 NW 13 15 7 8 1014.0 1013.9 11.8
24/09:00pm 12.2 9.7 12.2 100 0.0 W 17 20 9 11 1014.2 1014.1 11.4
24/08:30pm 12.2 10.4 12.2 100 0.0 W 13 19 7 10 1014.0 1013.9 11.0
24/08:00pm 12.0 10.2 12.0 100 0.0 WNW 13 17 7 9 1013.7 1013.6 11.0
24/07:30pm 12.1 11.0 12.1 100 0.0 N 9 15 5 8 1013.0 1012.9 10.8
24/07:00pm 12.3 10.6 12.3 100 0.0 NW 13 17 7 9 1013.0 1012.9 10.6
24/06:30pm 12.6 11.3 12.6 100 0.0 W 11 13 6 7 1012.8 1012.7 9.2
24/06:00pm 12.6 11.3 12.4 99 0.1 S 11 15 6 8 1012.1 1012.1 7.6
24/05:30pm 13.6 13.3 13.4 99 0.1 SSE 7 11 4 6 1011.8 1011.8 4.8
24/05:19pm 13.7 14.0 13.4 98 0.2 W 4 13 2 7 1011.6 1011.5 4.6
24/05:05pm 14.3 13.2 11.8 85 1.4 WNW 9 13 5 7 1011.4 1011.3 3.6
24/05:00pm 14.4 13.3 12.1 86 1.3 SW 9 13 5 7 1011.5 1011.4 3.2
24/04:30pm 15.8 13.8 10.3 70 2.9 ENE 11 15 6 8 1010.6 1010.5 2.0
24/04:00pm 16.8 14.2 9.2 61 4.0 SE 13 17 7 9 1009.7 1009.6 2.0
24/03:30pm 17.5 14.7 9.9 61 4.0 SE 15 19 8 10 1009.4 1009.3 2.0
24/03:00pm 18.5 16.9 11.6 64 3.8 SE 11 17 6 9 1009.3 1009.2 2.0
24/02:30pm 17.5 16.2 11.3 67 3.4 ESE 9 15 5 8 1009.2 1009.1 2.0
24/02:00pm 15.9 15.8 14.9 94 0.6 ESE 9 11 5 6 1009.4 1009.3 2.0
24/01:30pm 15.0 13.7 12.5 85 1.4 S 11 15 6 8 1009.7 1009.6 1.4
24/01:00pm 17.3 15.0 10.4 64 3.7 SE 13 19 7 10 1009.6 1009.5 0.6
24/12:30pm 17.9 16.0 11.9 68 3.3 S 13 20 7 11 1009.9 1009.8 0.6
24/12:00pm 17.1 15.6 11.8 71 2.9 SSE 11 20 6 11 1010.2 1010.1 0.6
24/11:34am 16.5 15.5 12.3 76 2.3 S 9 13 5 7 1010.7 1010.6 0.6
24/11:30am 16.4 15.6 12.9 80 2.0 S 9 13 5 7 1010.8 1010.7 0.6
24/11:01am 15.9 16.0 14.4 91 0.9 SW 7 15 4 8 1011.3 1011.2 0.6
24/11:00am 15.8 15.5 14.5 92 0.7 SSW 9 15 5 8 1011.3 1011.2 0.6
24/10:59am 15.8 15.5 14.3 91 0.9 SSW 9 15 5 8 1011.3 1011.2 0.6
24/10:40am 14.8 15.1 14.6 99 0.1 S 6 11 3 6 1011.6 1011.5 0.6
24/10:30am 14.7 14.9 14.7 100 0.0 WSW 7 9 4 5 1011.6 1011.5 0.6
24/10:00am 14.2 13.1 14.2 100 0.0 S 13 15 7 8 1011.3 1011.2 0.4
24/09:30am 13.9 13.8 13.9 100 0.0 SW 7 9 4 5 1011.6 1011.5 0.2
24/09:09am 13.3 13.6 13.3 100 0.0 SSW 4 7 2 4 1011.7 1011.7 0.2
24/09:06am 13.3 13.2 13.3 100 0.0 SSW 6 9 3 5 1011.6 1011.5 0.2
24/09:00am 13.4 12.8 13.4 100 0.0 S 9 15 5 8 1011.4 1011.3 4.4
24/08:48am 13.3 11.8 13.1 99 0.1 SW 13 19 7 10 1011.5 1011.4 3.8
24/08:40am 13.6 12.6 13.4 99 0.1 WSW 11 15 6 8 1011.6 1011.5 3.0
24/08:30am 13.5 12.8 13.3 99 0.1 S 9 17 5 9 1011.4 1011.3 3.0
24/08:00am 13.5 11.3 13.3 99 0.1 S 17 24 9 13 1011.0 1010.9 3.0
24/07:30am 13.1 9.5 12.9 99 0.1 S 24 30 13 16 1010.7 1010.6 3.0
24/07:00am 13.2 10.6 13.2 100 0.0 S 19 26 10 14 1010.5 1010.4 3.0
24/06:34am 13.2 11.0 13.2 100 0.0 S 17 20 9 11 1010.3 1010.2 3.0
24/06:30am 13.1 10.8 13.1 100 0.0 S 17 20 9 11 1010.2 1010.1 3.0
24/06:28am 13.2 11.0 13.2 100 0.0 S 17 20 9 11 1010.3 1010.2 3.0
24/06:17am 13.3 10.7 13.3 100 0.0 S 19 26 10 14 1010.2 1010.1 2.4
24/06:00am 13.7 11.3 13.7 100 0.0 S 19 26 10 14 1010.1 1010.0 1.0
24/05:30am 14.0 11.1 14.0 100 0.0 S 22 30 12 16 1009.7 1009.6 1.0
24/05:05am 14.3 11.9 14.3 100 0.0 S 20 26 11 14 1009.5 1009.4 1.0
24/05:00am 14.4 12.2 14.4 100 0.0 S 19 26 10 14 1009.4 1009.3 1.0
24/04:30am 13.6 14.7 13.6 100 0.0 CALM 0 0 0 0 1008.9 1008.8 1.0
24/04:00am 13.8 15.0 13.8 100 0.0 CALM 0 0 0 0 1008.7 1008.6 1.0
24/03:30am 13.8 15.0 13.8 100 0.0 CALM 0 0 0 0 1008.7 1008.6 1.0
24/03:00am 13.7 14.9 13.7 100 0.0 CALM 0 0 0 0 1008.8 1008.7 0.8
24/02:30am 13.4 14.5 13.4 100 0.0 CALM 0 0 0 0 1009.0 1008.9 0.8
24/02:05am 13.4 14.1 13.4 100 0.0 WSW 2 6 1 3 1009.4 1009.3 0.8
24/02:00am 13.3 13.2 13.3 100 0.0 SW 6 7 3 4 1009.4 1009.3 0.8
24/01:42am 13.5 14.6 13.5 100 0.0 CALM 0 0 0 0 1009.6 1009.5 0.8
24/01:30am 13.9 15.1 13.9 100 0.0 CALM 0 0 0 0 1009.7 1009.6 0.8
24/01:00am 14.4 15.8 14.4 100 0.0 CALM 0 0 0 0 1010.1 1010.0 0.8
24/12:30am 14.4 15.8 14.4 100 0.0 CALM 0 0 0 0 1010.4 1010.3 0.8
24/12:00am 14.9 15.2 14.9 100 0.0 WNW 7 9 4 5 1010.6 1010.5 0.8
 
Date/Time
EST
Temp
°C
App
Temp
°C
Dew
Point
°C
Rel
Hum
%
Delta-T
°C
Wind Press
QNH
hPa
Press
MSL
hPa
Rain since
9am
mm
Dir  Spd
km/h
Gust
km/h
Spd
kts
Gust
kts
23/11:30pm 15.0 15.3 15.0 100 0.0 W 7 9 4 5 1011.0 1010.9 0.8
23/11:00pm 15.1 15.4 15.1 100 0.0 WSW 7 11 4 6 1011.5 1011.4 0.8
23/10:30pm 15.2 16.9 15.2 100 0.0 CALM 0 0 0 0 1011.7 1011.7 0.8
23/10:00pm 15.1 16.8 15.1 100 0.0 CALM 0 0 0 0 1012.1 1012.1 0.8

Other formats

Comma delimited format used in spreadsheet applications
http://www.bom.gov.au/fwo/IDN60801/IDN60801.94750.axf

JavaScript Object Notation format (JSON) in row-major order
http://www.bom.gov.au/fwo/IDN60801/IDN60801.94750.json

Data quality

Most of these data are generated automatically and are frequently updated. Quality checks on data are not normally performed. It is possible for incorrect values to appear. Refer to information at About Latest Weather Observations and please check the disclaimer before using these data.